Time;durP1;ratioP1;P1;durP2;ratioP2;P2;SDS_P1;SDS_P2;PMS_P1;PMS_P2;Temp;Humidity;BMP_temperature;BMP_pressure;BME280_temperature;BME280_humidity;BME280_pressure;Samples;Min_cycle;Max_cycle;Signal;HPM_P1;HPM_P2
2020/12/07 00:00:30;;;;;;;66.60;43.30;;;4.60;99.90;;;;;;5030656;28;20698;-39
2020/12/07 00:02:56;;;;;;;57.47;40.53;;;4.60;99.90;;;;;;5030978;28;20216;-41
2020/12/07 00:05:23;;;;;;;52.45;37.17;;;4.60;99.90;;;;;;5031457;28;20258;-40
2020/12/07 00:07:50;;;;;;;64.70;40.63;;;4.60;99.90;;;;;;5030814;28;20286;-39
2020/12/07 00:10:17;;;;;;;58.03;40.60;;;4.50;99.90;;;;;;5030753;28;20234;-41
2020/12/07 00:12:45;;;;;;;64.63;41.37;;;4.50;99.90;;;;;;5030477;28;20242;-39
2020/12/07 00:15:12;;;;;;;61.47;39.87;;;4.40;99.90;;;;;;5030763;28;20287;-39
2020/12/07 00:17:39;;;;;;;60.53;39.10;;;4.30;99.90;;;;;;5030969;28;20207;-39
2020/12/07 00:20:07;;;;;;;61.38;42.08;;;4.30;99.90;;;;;;5030301;28;20200;-41
2020/12/07 00:22:34;;;;;;;64.22;42.15;;;4.40;99.90;;;;;;5030801;28;20230;-39
2020/12/07 00:25:04;;;;;;;58.27;39.83;;;4.40;99.90;;;;;;5031056;28;20553;-39
2020/12/07 00:27:32;;;;;;;60.17;41.10;;;4.40;99.90;;;;;;5029353;28;20744;-39
2020/12/07 00:30:00;;;;;;;56.17;38.53;;;4.40;99.90;;;;;;5027421;28;20295;-38
2020/12/07 00:32:28;;;;;;;59.23;39.90;;;4.40;99.90;;;;;;5030264;28;20212;-39
2020/12/07 00:34:55;;;;;;;56.67;41.17;;;4.40;99.90;;;;;;5031019;28;20245;-40
2020/12/07 00:37:23;;;;;;;60.70;41.07;;;4.40;99.90;;;;;;5034118;28;20230;-39
2020/12/07 00:39:50;;;;;;;59.50;40.47;;;4.40;99.90;;;;;;5034344;28;20669;-39
2020/12/07 00:42:17;;;;;;;64.37;42.13;;;4.40;99.90;;;;;;5034363;28;20297;-39
2020/12/07 00:44:43;;;;;;;62.63;42.13;;;4.50;99.90;;;;;;5033796;28;20203;-39
2020/12/07 00:47:11;;;;;;;63.97;42.80;;;4.50;99.90;;;;;;5033872;28;20557;-39
2020/12/07 00:49:38;;;;;;;62.30;41.37;;;4.50;99.90;;;;;;5030849;28;20189;-39
2020/12/07 00:52:06;;;;;;;57.67;40.07;;;4.50;99.90;;;;;;5033735;28;20224;-39
2020/12/07 00:54:34;;;;;;;65.75;42.40;;;4.60;99.90;;;;;;5032265;28;20644;-39
2020/12/07 00:57:01;;;;;;;60.63;39.37;;;4.60;99.90;;;;;;5031986;28;20196;-40
2020/12/07 00:59:33;;;;;;;58.00;38.90;;;4.60;99.90;;;;;;5033625;28;20284;-40
2020/12/07 01:02:03;;;;;;;61.57;42.60;;;4.60;99.90;;;;;;5056902;28;20216;-39
2020/12/07 01:04:29;;;;;;;54.93;39.33;;;4.50;99.90;;;;;;5033355;28;20227;-40
2020/12/07 01:07:00;;;;;;;60.57;40.00;;;4.50;99.90;;;;;;5031526;28;20196;-39
2020/12/07 01:09:26;;;;;;;57.72;38.78;;;4.50;99.90;;;;;;5033239;28;20250;-41
2020/12/07 01:11:56;;;;;;;59.67;40.60;;;4.60;99.90;;;;;;5032564;28;20216;-39
2020/12/07 01:14:23;;;;;;;54.97;38.85;;;4.50;99.90;;;;;;5031441;28;20283;-39
2020/12/07 01:16:54;;;;;;;59.50;38.85;;;4.60;99.90;;;;;;5032014;28;20856;-39
2020/12/07 01:19:22;;;;;;;56.70;40.40;;;4.60;99.90;;;;;;5029695;28;20659;-40
2020/12/07 01:21:50;;;;;;;61.10;40.13;;;4.60;99.90;;;;;;5031596;28;20311;-41
2020/12/07 01:24:18;;;;;;;56.93;38.30;;;4.60;99.90;;;;;;5031834;28;20199;-39
2020/12/07 01:26:45;;;;;;;53.90;37.73;;;4.60;99.90;;;;;;5031512;28;20204;-39
2020/12/07 01:29:12;;;;;;;54.33;39.07;;;4.60;99.90;;;;;;5036992;28;20218;-40
2020/12/07 01:31:40;;;;;;;53.80;38.77;;;4.50;99.90;;;;;;5037285;28;20473;-41
2020/12/07 01:34:10;;;;;;;57.97;38.85;;;4.40;99.90;;;;;;5037941;28;20195;-40
2020/12/07 01:36:38;;;;;;;54.90;39.53;;;4.40;99.90;;;;;;5036407;28;20291;-41
2020/12/07 01:39:06;;;;;;;60.60;39.37;;;4.40;99.90;;;;;;5033013;28;20212;-39
2020/12/07 01:41:34;;;;;;;59.10;39.73;;;4.40;99.90;;;;;;5034275;28;20290;-39
2020/12/07 01:44:00;;;;;;;60.27;41.10;;;4.40;99.90;;;;;;5033797;28;20188;-39
2020/12/07 01:46:28;;;;;;;58.20;39.65;;;4.40;99.90;;;;;;5016211;28;20270;-39
2020/12/07 01:48:59;;;;;;;58.97;42.23;;;4.50;99.90;;;;;;5029976;28;20597;-41
2020/12/07 01:51:27;;;;;;;65.87;43.07;;;4.50;99.90;;;;;;5034162;28;20212;-39
2020/12/07 01:53:54;;;;;;;61.40;40.03;;;4.50;99.90;;;;;;5032997;28;20200;-39
2020/12/07 01:56:27;;;;;;;60.67;40.23;;;4.60;99.90;;;;;;5031962;28;20211;-42
2020/12/07 01:58:57;;;;;;;58.20;39.15;;;4.60;99.90;;;;;;5031121;28;20214;-39
2020/12/07 02:01:27;;;;;;;59.13;40.23;;;4.60;99.90;;;;;;5055753;28;20224;-39
2020/12/07 02:03:54;;;;;;;62.00;40.37;;;4.60;99.90;;;;;;5031099;28;20204;-38
2020/12/07 02:06:21;;;;;;;57.43;40.20;;;4.70;99.90;;;;;;5032371;28;20208;-39
2020/12/07 02:08:49;;;;;;;62.80;41.47;;;4.60;99.90;;;;;;5031143;28;20200;-39
2020/12/07 02:11:19;;;;;;;59.78;38.67;;;4.60;99.90;;;;;;5031624;28;20582;-39
2020/12/07 02:13:46;;;;;;;53.77;38.47;;;4.60;99.90;;;;;;5031373;28;20251;-39
2020/12/07 02:16:14;;;;;;;64.97;40.13;;;4.60;99.90;;;;;;5031471;28;20215;-39
2020/12/07 02:18:50;;;;;;;63.07;41.33;;;4.70;99.90;;;;;;5031516;28;20200;-39
2020/12/07 02:21:17;;;;;;;65.77;42.57;;;4.70;99.90;;;;;;5032418;28;20220;-41
2020/12/07 02:23:52;;;;;;;57.10;40.07;;;4.70;99.90;;;;;;5031434;28;20669;-38
2020/12/07 02:26:23;;;;;;;59.40;39.28;;;4.70;99.90;;;;;;5031349;28;20265;-39
2020/12/07 02:28:52;;;;;;;58.10;40.43;;;4.60;99.90;;;;;;5064214;28;20227;-40
2020/12/07 02:31:24;;;;;;;60.17;40.27;;;4.70;99.90;;;;;;5030346;28;20720;-39
2020/12/07 02:33:51;;;;;;;51.57;37.73;;;4.60;99.90;;;;;;5030977;28;20322;-39
2020/12/07 02:36:18;;;;;;;63.80;41.10;;;4.60;99.90;;;;;;5030429;28;20280;-39
2020/12/07 02:38:52;;;;;;;54.63;39.53;;;4.60;99.90;;;;;;5028510;28;20283;-40
2020/12/07 02:41:20;;;;;;;58.03;40.07;;;4.60;99.90;;;;;;5030109;28;20286;-39
2020/12/07 02:43:46;;;;;;;64.20;43.00;;;4.70;99.90;;;;;;5030449;28;20214;-39
2020/12/07 02:46:13;;;;;;;60.03;39.60;;;4.60;99.90;;;;;;5030362;28;20287;-39
2020/12/07 02:48:40;;;;;;;56.03;39.13;;;4.70;99.90;;;;;;5029836;28;20658;-41
2020/12/07 02:51:10;;;;;;;51.27;38.57;;;4.60;99.90;;;;;;5030758;28;20571;-39
2020/12/07 02:53:38;;;;;;;50.30;35.23;;;4.60;99.90;;;;;;5030116;28;20283;-38
2020/12/07 02:56:07;;;;;;;53.57;37.67;;;4.60;99.90;;;;;;5027984;28;20651;-39
2020/12/07 02:58:42;;;;;;;54.97;37.33;;;4.60;99.90;;;;;;5027380;28;20558;-39
2020/12/07 03:01:08;;;;;;;55.78;38.92;;;4.60;99.90;;;;;;5030680;28;20223;-38
2020/12/07 03:03:35;;;;;;;57.37;39.90;;;4.70;99.90;;;;;;5029690;28;20196;-39
2020/12/07 03:06:02;;;;;;;50.58;34.80;;;4.70;99.90;;;;;;5029887;28;20630;-39
2020/12/07 03:08:29;;;;;;;51.30;36.43;;;4.70;99.90;;;;;;5029525;28;20277;-39
2020/12/07 03:10:56;;;;;;;62.40;39.47;;;4.70;99.90;;;;;;5030403;28;20232;-40
2020/12/07 03:13:25;;;;;;;50.28;37.42;;;4.70;99.90;;;;;;5031938;28;20204;-39
2020/12/07 03:15:59;;;;;;;53.95;36.90;;;4.70;99.90;;;;;;5030368;28;20200;-39
2020/12/07 03:18:29;;;;;;;53.67;35.37;;;4.70;99.90;;;;;;5030113;28;20607;-39
2020/12/07 03:21:00;;;;;;;56.03;38.85;;;4.70;99.90;;;;;;5030101;28;20302;-38
2020/12/07 03:23:27;;;;;;;51.93;37.83;;;4.70;99.90;;;;;;5030073;28;20238;-37
2020/12/07 03:25:57;;;;;;;53.93;37.03;;;4.80;99.90;;;;;;5030444;28;20196;-37
2020/12/07 03:28:28;;;;;;;56.05;38.63;;;4.80;99.90;;;;;;5029644;28;20613;-37
2020/12/07 03:30:54;;;;;;;49.43;37.23;;;4.70;99.90;;;;;;5046181;28;20727;-37
2020/12/07 03:33:21;;;;;;;53.33;38.13;;;4.70;99.90;;;;;;5046413;28;20605;-38
2020/12/07 03:35:48;;;;;;;52.03;35.90;;;4.80;99.90;;;;;;5030919;28;20215;-37
2020/12/07 03:38:15;;;;;;;50.88;36.70;;;4.70;99.90;;;;;;5046259;28;20330;-37
2020/12/07 03:40:41;;;;;;;53.30;36.63;;;4.70;99.90;;;;;;5051592;28;20231;-40
2020/12/07 03:43:19;;;;;;;50.93;36.07;;;4.70;99.90;;;;;;5046979;28;20204;-38
2020/12/07 03:45:46;;;;;;;48.70;36.50;;;4.70;99.90;;;;;;5046532;28;20686;-39
2020/12/07 03:48:16;;;;;;;50.10;36.10;;;4.70;99.90;;;;;;5030712;28;20212;-40
2020/12/07 03:50:42;;;;;;;52.13;37.77;;;4.80;99.90;;;;;;5046255;28;20244;-38
2020/12/07 03:53:09;;;;;;;49.03;36.03;;;4.80;99.90;;;;;;5031306;28;20196;-38
2020/12/07 03:55:36;;;;;;;49.03;36.00;;;4.80;99.90;;;;;;5046200;28;20253;-39
2020/12/07 03:58:09;;;;;;;51.93;35.07;;;4.80;99.90;;;;;;5045962;28;20200;-38
2020/12/07 04:00:37;;;;;;;49.95;37.63;;;4.80;99.90;;;;;;5030823;28;20224;-37
2020/12/07 04:03:09;;;;;;;56.70;38.03;;;4.90;99.90;;;;;;5045811;28;20230;-38
2020/12/07 04:05:46;;;;;;;48.13;34.73;;;4.80;99.90;;;;;;5046129;28;20222;-37
2020/12/07 04:08:16;;;;;;;49.05;33.85;;;4.80;99.90;;;;;;5045456;28;20204;-38
2020/12/07 04:10:45;;;;;;;45.03;34.57;;;4.80;99.90;;;;;;5045714;28;20227;-39
2020/12/07 04:13:12;;;;;;;44.17;33.40;;;4.90;99.90;;;;;;5030490;28;20199;-38
2020/12/07 04:15:39;;;;;;;49.57;34.40;;;4.80;99.90;;;;;;5030878;28;20204;-38
2020/12/07 04:18:06;;;;;;;48.60;35.90;;;4.80;99.90;;;;;;5030218;28;20195;-37
2020/12/07 04:20:32;;;;;;;50.20;37.43;;;4.80;99.90;;;;;;5030452;28;20219;-37
2020/12/07 04:22:59;;;;;;;56.50;39.17;;;4.80;99.90;;;;;;5030382;28;20318;-38
2020/12/07 04:25:25;;;;;;;54.00;39.13;;;4.80;99.90;;;;;;5029362;28;20214;-38
2020/12/07 04:27:52;;;;;;;55.33;36.10;;;4.80;99.90;;;;;;5029959;28;20291;-40
2020/12/07 04:30:19;;;;;;;48.03;36.17;;;4.80;99.90;;;;;;5030364;28;20196;-38
2020/12/07 04:32:46;;;;;;;48.87;35.57;;;4.80;99.90;;;;;;5030689;28;20215;-38
2020/12/07 04:35:12;;;;;;;47.87;34.60;;;4.90;99.90;;;;;;5038574;28;20230;-40
2020/12/07 04:37:39;;;;;;;52.37;37.13;;;4.80;99.90;;;;;;5043979;28;20208;-43
2020/12/07 04:40:06;;;;;;;49.47;34.73;;;4.80;99.90;;;;;;5032188;28;20208;-38
2020/12/07 04:42:33;;;;;;;56.93;39.40;;;4.70;99.90;;;;;;5030462;28;20278;-40
2020/12/07 04:45:00;;;;;;;55.95;38.92;;;4.70;99.90;;;;;;5030459;28;20204;-38
2020/12/07 04:47:29;;;;;;;50.63;37.07;;;4.60;99.90;;;;;;5030552;28;20247;-38
2020/12/07 04:49:57;;;;;;;49.13;34.87;;;4.60;99.90;;;;;;5030414;28;20208;-40
2020/12/07 04:52:24;;;;;;;54.97;38.43;;;4.60;99.90;;;;;;5030393;28;20279;-38
2020/12/07 04:54:52;;;;;;;60.03;39.35;;;4.70;99.90;;;;;;5030608;28;20196;-37
2020/12/07 04:57:21;;;;;;;59.15;40.10;;;4.70;99.90;;;;;;5030747;28;20207;-38
2020/12/07 04:59:48;;;;;;;59.30;40.27;;;4.70;99.90;;;;;;5030286;28;20220;-38
2020/12/07 05:02:15;;;;;;;60.17;40.43;;;4.70;99.90;;;;;;5042765;22;20310;-38
2020/12/07 05:04:42;;;;;;;59.33;41.67;;;4.50;99.90;;;;;;5043948;28;20243;-37
2020/12/07 05:07:09;;;;;;;60.42;40.83;;;4.30;99.90;;;;;;5030350;28;20265;-40
2020/12/07 05:09:37;;;;;;;57.08;41.97;;;4.40;99.90;;;;;;5029976;28;20338;-37
2020/12/07 05:12:08;;;;;;;68.20;44.57;;;4.30;99.90;;;;;;5029104;28;20303;-38
2020/12/07 05:14:36;;;;;;;63.00;43.70;;;4.60;99.90;;;;;;5029809;28;20278;-37
2020/12/07 05:17:03;;;;;;;59.28;40.47;;;4.40;99.90;;;;;;5030404;28;20212;-37
2020/12/07 05:19:29;;;;;;;62.80;42.08;;;4.40;99.90;;;;;;5030246;28;20231;-38
2020/12/07 05:21:56;;;;;;;60.38;41.65;;;4.50;99.90;;;;;;5030672;28;20220;-37
2020/12/07 05:24:25;;;;;;;64.00;42.38;;;4.40;99.90;;;;;;5033935;28;20665;-39
2020/12/07 05:26:53;;;;;;;68.40;43.63;;;4.50;99.90;;;;;;5034199;28;20206;-38
2020/12/07 05:29:30;;;;;;;66.85;43.47;;;4.40;99.90;;;;;;5032808;28;20223;-37
2020/12/07 05:31:57;;;;;;;65.83;41.83;;;4.40;99.90;;;;;;5033813;28;20237;-38
2020/12/07 05:34:25;;;;;;;70.27;46.70;;;4.40;99.90;;;;;;5033520;28;20563;-39
2020/12/07 05:36:55;;;;;;;71.10;45.77;;;4.40;99.90;;;;;;5033283;28;20204;-38
2020/12/07 05:39:25;;;;;;;62.60;44.17;;;4.50;99.90;;;;;;5033586;28;20785;-39
2020/12/07 05:41:53;;;;;;;66.73;44.03;;;4.50;99.90;;;;;;5032399;28;20761;-38
2020/12/07 05:44:21;;;;;;;66.72;45.75;;;4.60;99.90;;;;;;5033489;28;20295;-38
2020/12/07 05:46:51;;;;;;;61.20;42.67;;;4.70;99.90;;;;;;5033546;28;20554;-38
2020/12/07 05:49:19;;;;;;;66.30;42.57;;;4.70;99.90;;;;;;5033780;28;20261;-38
2020/12/07 05:51:56;;;;;;;62.00;43.03;;;4.70;99.90;;;;;;5035992;28;20254;-39
2020/12/07 05:54:23;;;;;;;62.07;41.23;;;4.80;99.90;;;;;;5036423;28;20286;-38
2020/12/07 05:56:55;;;;;;;58.75;40.35;;;4.80;99.90;;;;;;5033324;28;20682;-38
2020/12/07 05:59:30;;;;;;;57.65;41.47;;;4.80;99.90;;;;;;5032990;28;20207;-39
2020/12/07 06:01:59;;;;;;;71.53;46.42;;;4.80;99.90;;;;;;5037172;28;20227;-38
2020/12/07 06:04:27;;;;;;;67.23;43.67;;;4.60;99.90;;;;;;5037108;28;20234;-38
2020/12/07 06:06:57;;;;;;;67.43;43.87;;;4.60;99.90;;;;;;5038681;28;20682;-37
2020/12/07 06:09:28;;;;;;;73.23;49.53;;;4.70;99.90;;;;;;5039741;28;20208;-38
2020/12/07 06:11:59;;;;;;;63.40;42.77;;;4.50;99.90;;;;;;5039120;28;20225;-38
2020/12/07 06:14:27;;;;;;;62.73;43.90;;;4.50;99.90;;;;;;5040689;28;20204;-37
2020/12/07 06:16:54;;;;;;;66.10;44.97;;;4.50;99.90;;;;;;5040401;28;20287;-37
2020/12/07 06:19:20;;;;;;;88.70;51.90;;;4.60;99.90;;;;;;5039848;28;20490;-38
2020/12/07 06:21:53;;;;;;;74.00;43.13;;;4.40;99.90;;;;;;5041549;28;20224;-38
2020/12/07 06:24:19;;;;;;;85.27;50.63;;;4.40;99.90;;;;;;5038815;28;20222;-38
2020/12/07 06:27:01;;;;;;;67.70;44.13;;;4.40;99.90;;;;;;5032604;28;20295;-37
2020/12/07 06:29:28;;;;;;;75.30;44.50;;;4.40;99.90;;;;;;5033102;28;20542;-38
2020/12/07 06:31:57;;;;;;;70.13;44.33;;;4.40;99.90;;;;;;5031663;28;20236;-38
2020/12/07 06:34:31;;;;;;;69.20;47.33;;;4.40;99.90;;;;;;5032686;28;20204;-38
2020/12/07 06:36:58;;;;;;;75.50;50.53;;;4.40;99.90;;;;;;5032284;28;20231;-38
2020/12/07 06:39:25;;;;;;;67.80;45.00;;;4.40;99.90;;;;;;5032936;28;20211;-37
2020/12/07 06:41:58;;;;;;;71.30;45.80;;;4.40;99.90;;;;;;5032283;28;20315;-38
2020/12/07 06:44:27;;;;;;;71.33;43.87;;;4.50;99.90;;;;;;5032242;28;20611;-37
2020/12/07 06:46:59;;;;;;;68.20;43.23;;;4.40;99.90;;;;;;5032487;28;20192;-38
2020/12/07 06:49:31;;;;;;;72.60;45.87;;;4.70;99.90;;;;;;5032430;28;20208;-37
2020/12/07 06:52:03;;;;;;;70.20;44.57;;;4.70;99.90;;;;;;5032164;28;20220;-38
2020/12/07 06:57:23;;;;;;;65.27;42.57;;;4.60;99.90;;;;;;5032082;28;20278;-37
2020/12/07 07:00:05;;;;;;;66.57;43.10;;;4.60;99.90;;;;;;5032164;28;20204;-37
2020/12/07 07:02:31;;;;;;;82.03;52.83;;;4.60;99.90;;;;;;5032315;28;20227;-39
2020/12/07 07:05:00;;;;;;;236.83;161.03;;;4.90;99.90;;;;;;5044208;28;20223;-38
2020/12/07 07:07:28;;;;;;;81.00;53.20;;;5.40;99.90;;;;;;5049384;28;20196;-40
2020/12/07 07:09:55;;;;;;;59.80;40.07;;;5.50;99.90;;;;;;5049406;28;20199;-39
2020/12/07 07:12:23;;;;;;;53.28;39.65;;;5.20;99.90;;;;;;5034373;28;20227;-39
2020/12/07 07:14:53;;;;;;;47.83;34.47;;;5.10;99.90;;;;;;5031774;28;20442;-37
2020/12/07 07:17:22;;;;;;;46.90;34.63;;;4.90;99.90;;;;;;5031930;28;20199;-39
2020/12/07 07:19:49;;;;;;;52.28;34.63;;;4.80;99.90;;;;;;5031195;28;20249;-38
2020/12/07 07:22:15;;;;;;;44.70;33.20;;;4.70;99.90;;;;;;5031316;28;20318;-37
2020/12/07 07:24:48;;;;;;;44.63;33.53;;;4.70;99.90;;;;;;5031401;28;20283;-36
2020/12/07 07:29:59;;;;;;;45.87;34.23;;;4.90;99.90;;;;;;5031243;28;20192;-38
2020/12/07 07:32:27;;;;;;;47.30;34.13;;;4.80;99.90;;;;;;5031356;28;20223;-40
2020/12/07 07:34:53;;;;;;;48.10;32.60;;;4.90;99.90;;;;;;5035423;28;20200;-41
2020/12/07 07:37:21;;;;;;;49.07;31.60;;;4.70;99.90;;;;;;5043095;28;20192;-40
2020/12/07 07:39:47;;;;;;;45.50;33.38;;;4.70;99.90;;;;;;5034845;28;20254;-39
2020/12/07 07:42:16;;;;;;;47.20;34.00;;;4.60;99.90;;;;;;5031327;28;20224;-40
2020/12/07 07:44:46;;;;;;;56.73;38.20;;;4.60;99.90;;;;;;5030878;28;20761;-40
2020/12/07 07:47:18;;;;;;;44.53;32.17;;;4.60;99.90;;;;;;5030901;28;20548;-40
2020/12/07 08:15:40;;;;;;;19.83;16.23;;;4.70;99.90;;;;;;5109057;28;20624;-39
2020/12/07 08:18:06;;;;;;;16.73;14.27;;;4.80;99.90;;;;;;5108266;28;20225;-41
2020/12/07 08:20:37;;;;;;;14.43;12.20;;;4.80;99.90;;;;;;5108116;28;20228;-41
2020/12/07 08:23:05;;;;;;;13.03;11.67;;;4.90;99.90;;;;;;5108536;28;20240;-41
2020/12/07 08:25:44;;;;;;;11.23;10.03;;;4.80;99.90;;;;;;5108298;28;20247;-41
2020/12/07 08:28:20;;;;;;;11.40;9.90;;;5.00;99.90;;;;;;5108105;28;20228;-40
2020/12/07 08:31:16;;;;;;;12.40;10.07;;;5.00;99.90;;;;;;5108312;28;20293;-41
2020/12/07 08:33:57;;;;;;;9.50;8.47;;;5.10;99.90;;;;;;5071979;28;20201;-41
2020/12/07 08:36:27;;;;;;;13.13;11.23;;;5.10;99.90;;;;;;5107965;28;20652;-39
2020/12/07 08:38:53;;;;;;;9.37;8.17;;;5.00;99.90;;;;;;5107328;28;20213;-39
2020/12/07 08:41:21;;;;;;;10.80;9.80;;;4.90;99.90;;;;;;5108100;28;20213;-38
2020/12/07 08:43:50;;;;;;;13.27;10.77;;;4.90;99.90;;;;;;5107849;28;20243;-39
2020/12/07 08:46:18;;;;;;;10.17;8.93;;;4.80;99.90;;;;;;5127119;28;20204;-38
2020/12/07 08:48:45;;;;;;;8.35;7.55;;;4.80;99.90;;;;;;5127176;27;20216;-39
2020/12/07 08:51:12;;;;;;;9.20;7.67;;;4.80;99.90;;;;;;5124757;28;20212;-38
2020/12/07 08:53:40;;;;;;;6.82;6.13;;;4.90;99.90;;;;;;5127736;27;20196;-41
2020/12/07 08:56:08;;;;;;;7.00;6.33;;;4.90;99.90;;;;;;5127564;27;20212;-40
2020/12/07 08:58:35;;;;;;;6.27;5.67;;;4.80;99.90;;;;;;5127046;27;20211;-39
2020/12/07 09:01:04;;;;;;;7.63;6.87;;;4.90;99.90;;;;;;5127805;27;20209;-39
2020/12/07 09:03:31;;;;;;;6.03;5.47;;;4.90;99.90;;;;;;5127955;27;20220;-40
2020/12/07 09:05:58;;;;;;;5.80;5.28;;;4.90;99.90;;;;;;5128033;27;20193;-40
2020/12/07 09:08:25;;;;;;;6.30;5.70;;;5.00;99.90;;;;;;5128084;27;20624;-40
2020/12/07 09:10:53;;;;;;;7.07;6.47;;;5.10;99.90;;;;;;5128376;27;20249;-40
2020/12/07 09:13:19;;;;;;;7.25;6.55;;;4.90;99.90;;;;;;5124478;27;20193;-40
2020/12/07 09:15:46;;;;;;;8.27;7.33;;;5.00;99.90;;;;;;5114031;28;20198;-39
2020/12/07 09:18:12;;;;;;;7.50;6.73;;;5.00;99.90;;;;;;5113629;28;20283;-39
2020/12/07 09:20:39;;;;;;;8.10;7.03;;;5.10;99.90;;;;;;5113739;28;20308;-40
2020/12/07 09:23:05;;;;;;;7.35;6.60;;;5.00;99.90;;;;;;5113508;28;20367;-40
2020/12/07 09:25:32;;;;;;;8.27;7.47;;;4.90;99.90;;;;;;5113953;28;20205;-40
2020/12/07 09:27:59;;;;;;;7.50;6.73;;;4.90;99.90;;;;;;5113022;28;20228;-40
2020/12/07 09:30:26;;;;;;;6.97;6.28;;;4.90;99.90;;;;;;5113566;28;20204;-40
2020/12/07 09:32:52;;;;;;;10.33;7.33;;;4.90;99.90;;;;;;5112274;28;20197;-40
2020/12/07 09:35:19;;;;;;;7.83;7.03;;;4.90;99.90;;;;;;5113946;28;20201;-40
2020/12/07 09:37:46;;;;;;;7.83;7.03;;;4.90;99.90;;;;;;5111970;28;20197;-41
2020/12/07 09:40:12;;;;;;;7.83;7.00;;;5.00;99.90;;;;;;5113714;28;20217;-40
2020/12/07 09:42:40;;;;;;;7.70;7.00;;;5.00;99.90;;;;;;5113449;28;20228;-40
2020/12/07 09:45:08;;;;;;;7.93;7.20;;;5.20;99.90;;;;;;5112505;28;20564;-41
2020/12/07 09:47:35;;;;;;;8.93;7.33;;;5.10;99.90;;;;;;5113165;28;20621;-42
2020/12/07 09:50:02;;;;;;;9.27;8.27;;;5.20;99.90;;;;;;5113129;27;20197;-41
2020/12/07 09:52:29;;;;;;;9.03;8.13;;;5.20;99.90;;;;;;5113203;28;20600;-41
2020/12/07 09:54:55;;;;;;;8.87;7.67;;;5.10;99.90;;;;;;5112905;28;20199;-41
2020/12/07 09:57:22;;;;;;;7.88;7.07;;;5.20;99.90;;;;;;5113056;28;20283;-41
2020/12/07 09:59:49;;;;;;;9.50;7.80;;;5.30;99.90;;;;;;5113270;28;20211;-40
2020/12/07 10:02:17;;;;;;;11.27;8.13;;;5.30;99.90;;;;;;5112600;28;20231;-40
2020/12/07 10:04:45;;;;;;;8.33;7.53;;;5.30;99.90;;;;;;5115908;28;20228;-40
2020/12/07 10:07:11;;;;;;;7.83;7.13;;;5.30;99.90;;;;;;5112679;27;20268;-40
2020/12/07 10:09:38;;;;;;;9.03;8.10;;;5.50;99.90;;;;;;5112529;28;20693;-40
2020/12/07 10:12:05;;;;;;;9.23;8.33;;;5.60;99.90;;;;;;5112957;28;20215;-39
2020/12/07 10:14:32;;;;;;;9.50;8.57;;;5.60;99.90;;;;;;5113107;27;20258;-40
2020/12/07 10:16:59;;;;;;;9.30;8.30;;;5.60;99.90;;;;;;5112329;28;20193;-40
2020/12/07 10:19:26;;;;;;;9.73;8.13;;;5.50;99.90;;;;;;5112453;28;20216;-39
2020/12/07 10:21:55;;;;;;;8.77;7.87;;;5.40;99.90;;;;;;5112934;28;20213;-39
2020/12/07 10:24:22;;;;;;;9.43;8.53;;;5.40;99.90;;;;;;5112660;28;20233;-39
2020/12/07 10:26:49;;;;;;;8.80;7.95;;;5.30;99.90;;;;;;5112092;28;20604;-40
2020/12/07 10:29:15;;;;;;;10.00;7.20;;;5.30;99.90;;;;;;5111732;28;20197;-39
2020/12/07 10:31:42;;;;;;;9.63;8.10;;;5.20;99.90;;;;;;5112732;28;20210;-40
2020/12/07 10:34:08;;;;;;;8.07;7.30;;;5.20;99.90;;;;;;5112552;28;20288;-40
2020/12/07 10:36:37;;;;;;;7.83;7.20;;;5.10;99.90;;;;;;5112466;28;20375;-39
2020/12/07 10:39:04;;;;;;;8.40;7.63;;;5.10;99.90;;;;;;5112088;28;20196;-40
2020/12/07 10:41:31;;;;;;;7.30;6.60;;;5.10;99.90;;;;;;5112521;28;20212;-39
2020/12/07 10:43:57;;;;;;;7.23;6.57;;;5.20;99.90;;;;;;5112244;28;20298;-39
2020/12/07 10:46:24;;;;;;;7.20;6.60;;;5.30;99.90;;;;;;5112423;28;20197;-39
2020/12/07 10:48:51;;;;;;;7.70;7.00;;;5.20;99.90;;;;;;5111910;28;20448;-40
2020/12/07 10:51:18;;;;;;;7.50;6.85;;;5.20;99.90;;;;;;5114115;28;20225;-39
2020/12/07 10:53:46;;;;;;;8.37;7.50;;;5.30;99.90;;;;;;5118576;28;20245;-40
2020/12/07 10:56:14;;;;;;;6.77;6.17;;;5.40;99.90;;;;;;5115368;28;20197;-39
2020/12/07 10:58:41;;;;;;;8.53;7.83;;;5.50;99.90;;;;;;5112014;28;20218;-40
2020/12/07 11:01:08;;;;;;;7.13;6.53;;;5.60;99.90;;;;;;5118586;28;20236;-39
2020/12/07 11:03:35;;;;;;;7.23;6.63;;;5.70;99.90;;;;;;5117051;28;20228;-39
2020/12/07 11:06:10;;;;;;;6.87;6.27;;;5.70;99.90;;;;;;5113503;28;20202;-39
2020/12/07 11:08:45;;;;;;;7.63;6.93;;;5.70;99.90;;;;;;5111951;28;20215;-40
2020/12/07 11:11:12;;;;;;;6.73;6.23;;;5.60;99.90;;;;;;5112465;28;20224;-40
2020/12/07 11:13:39;;;;;;;8.27;7.57;;;5.70;99.90;;;;;;5106488;28;20197;-40
2020/12/07 11:16:10;;;;;;;8.60;7.80;;;5.70;99.90;;;;;;5111648;28;20528;-41
2020/12/07 11:18:36;;;;;;;6.77;6.20;;;5.70;99.90;;;;;;5111723;28;20209;-39
2020/12/07 11:21:03;;;;;;;6.53;5.93;;;5.70;99.90;;;;;;5111987;28;20305;-39
2020/12/07 11:23:30;;;;;;;6.30;5.77;;;5.60;99.90;;;;;;5111440;28;20229;-39
2020/12/07 11:25:56;;;;;;;4.60;4.20;;;5.60;99.90;;;;;;5112114;28;20197;-39
2020/12/07 11:28:24;;;;;;;7.27;6.57;;;5.60;99.90;;;;;;5111419;28;20228;-40
2020/12/07 11:30:50;;;;;;;7.77;7.07;;;5.60;99.90;;;;;;5111890;28;20300;-39
2020/12/07 11:33:17;;;;;;;9.33;8.47;;;5.60;99.90;;;;;;5111852;28;20203;-38
2020/12/07 11:35:43;;;;;;;8.07;7.27;;;5.60;99.90;;;;;;5111948;28;20208;-38
2020/12/07 11:38:14;;;;;;;8.63;7.73;;;5.60;99.90;;;;;;5111222;28;20293;-39
2020/12/07 11:40:57;;;;;;;7.77;7.03;;;5.40;99.90;;;;;;5112159;28;20228;-38
2020/12/07 11:43:35;;;;;;;7.13;6.43;;;5.50;99.90;;;;;;5119110;28;20305;-39
2020/12/07 11:46:01;;;;;;;7.53;6.87;;;5.50;99.90;;;;;;5119746;28;20197;-39
2020/12/07 11:48:28;;;;;;;7.00;6.37;;;5.50;99.90;;;;;;5119170;28;20344;-39
2020/12/07 11:50:54;;;;;;;7.40;6.80;;;5.50;99.90;;;;;;5118952;28;20213;-38
2020/12/07 11:53:21;;;;;;;6.60;6.00;;;5.50;99.90;;;;;;5111459;28;20529;-39
2020/12/07 11:55:47;;;;;;;6.37;5.77;;;5.50;99.90;;;;;;5111135;28;20201;-38
2020/12/07 11:58:14;;;;;;;6.60;6.00;;;5.50;99.90;;;;;;5110631;28;20258;-38
2020/12/07 12:00:42;;;;;;;6.00;5.50;;;5.50;99.90;;;;;;5111246;28;20270;-39
2020/12/07 12:03:08;;;;;;;6.33;5.03;;;5.60;99.90;;;;;;5111184;28;20289;-39
2020/12/07 12:05:35;;;;;;;4.50;4.17;;;5.60;99.90;;;;;;5111347;28;20671;-39
2020/12/07 12:08:01;;;;;;;3.97;3.57;;;5.80;99.90;;;;;;5110852;28;20746;-38
2020/12/07 12:10:29;;;;;;;4.57;4.17;;;5.80;99.90;;;;;;5111650;28;20652;-38
2020/12/07 12:12:55;;;;;;;3.77;3.47;;;5.90;99.90;;;;;;5112936;28;20202;-39
2020/12/07 12:15:22;;;;;;;3.03;2.83;;;5.90;99.90;;;;;;5111355;28;20611;-39
2020/12/07 12:17:59;;;;;;;3.63;3.33;;;6.00;99.90;;;;;;5110781;28;20268;-38
2020/12/07 12:20:25;;;;;;;3.20;3.00;;;6.00;99.90;;;;;;5110765;28;20433;-38
2020/12/07 12:22:52;;;;;;;2.60;2.50;;;6.00;99.90;;;;;;5110840;28;20295;-39
2020/12/07 12:25:18;;;;;;;3.27;3.03;;;5.90;99.90;;;;;;5110547;28;20284;-38
2020/12/07 12:27:45;;;;;;;3.33;3.13;;;5.90;99.90;;;;;;5110857;28;20197;-38
2020/12/07 12:30:11;;;;;;;2.87;2.67;;;5.90;99.90;;;;;;5110579;28;20193;-38
2020/12/07 12:32:38;;;;;;;2.80;2.60;;;5.90;99.90;;;;;;5110587;28;20193;-38
2020/12/07 12:35:17;;;;;;;3.08;2.88;;;5.90;99.90;;;;;;5110880;28;20250;-39
2020/12/07 12:37:44;;;;;;;3.03;2.83;;;5.80;99.90;;;;;;5110744;28;20227;-39
2020/12/07 12:40:10;;;;;;;3.30;3.00;;;5.80;99.90;;;;;;5110774;28;20213;-39
2020/12/07 12:42:37;;;;;;;2.85;2.65;;;5.80;99.90;;;;;;5109637;28;20771;-39
2020/12/07 12:45:04;;;;;;;3.05;2.83;;;5.80;99.90;;;;;;5110781;28;20201;-39
2020/12/07 12:47:30;;;;;;;2.90;2.70;;;5.80;99.90;;;;;;5110747;28;20223;-39
2020/12/07 12:49:57;;;;;;;3.93;3.00;;;5.80;99.90;;;;;;5113583;28;20306;-39
2020/12/07 12:52:24;;;;;;;3.30;3.10;;;5.80;99.90;;;;;;5114942;28;20216;-39
2020/12/07 12:54:51;;;;;;;3.27;2.97;;;5.70;99.90;;;;;;5114396;28;20243;-39
2020/12/07 12:57:17;;;;;;;3.83;3.53;;;5.80;99.90;;;;;;5114799;28;20284;-39
2020/12/07 12:59:44;;;;;;;3.47;3.17;;;5.80;99.90;;;;;;5113482;28;20193;-40
2020/12/07 13:02:10;;;;;;;2.85;2.65;;;5.90;99.90;;;;;;5115280;28;20241;-39
2020/12/07 13:04:37;;;;;;;3.20;2.90;;;5.90;99.90;;;;;;5114705;28;20201;-39
2020/12/07 13:07:03;;;;;;;3.40;3.20;;;5.80;99.90;;;;;;5110813;28;20197;-38
2020/12/07 13:09:31;;;;;;;3.30;2.70;;;5.80;99.90;;;;;;5112410;28;20288;-39
2020/12/07 13:11:57;;;;;;;2.90;2.70;;;5.80;99.90;;;;;;5114010;28;20213;-38
2020/12/07 13:14:24;;;;;;;3.47;3.17;;;5.80;99.90;;;;;;5111286;28;20220;-39
2020/12/07 13:16:58;;;;;;;3.27;3.07;;;5.80;99.90;;;;;;5113775;28;20656;-39
2020/12/07 13:19:25;;;;;;;3.83;3.53;;;5.90;99.90;;;;;;5111509;28;20197;-39